This is the latest recevied weather packets stored in our database for station/object OK5TVR-12. If no packets are shown the sender has not sent any weather packets the latest 10 day(s).
| Time | Temp. | Humidity | Pressure | Rain* | Wind** | Luminosity | Snow |
|---|---|---|---|---|---|---|---|
| 1787729377 | 18.89° C | 53% | 1019 hPa | 0 mm | - | - | - |
| 1787729377 | 18.89° C | 53% | 1019 hPa | 0 mm | - | - | - |
| 1787729373 | 18.89° C | 53% | 1019 hPa | 0 mm | - | - | - |
| 1787729372 | 18.89° C | 53% | 1019 hPa | 0 mm | - | - | - |
| 1787728477 | 16.11° C | 62% | 1018.9 hPa | 0 mm | - | - | - |
| 1787728477 | 16.11° C | 62% | 1018.9 hPa | 0 mm | - | - | - |
| 1787728473 | 16.11° C | 62% | 1018.9 hPa | 0 mm | - | - | - |
| 1787728472 | 16.11° C | 62% | 1018.9 hPa | 0 mm | - | - | - |
| 1787727577 | 17.22° C | 57% | 1018.7 hPa | 0 mm | - | - | - |
| 1787727577 | 17.22° C | 57% | 1018.7 hPa | 0 mm | - | - | - |
| 1787727573 | 17.22° C | 57% | 1018.7 hPa | 0 mm | - | - | - |
| 1787727572 | 17.22° C | 57% | 1018.7 hPa | 0 mm | - | - | - |
| 1787726677 | 17.22° C | 59% | 1018.5 hPa | 0 mm | - | - | - |
| 1787726677 | 17.22° C | 59% | 1018.5 hPa | 0 mm | - | - | - |
| 1787726672 | 17.22° C | 59% | 1018.5 hPa | 0 mm | - | - | - |
| 1787726672 | 17.22° C | 59% | 1018.5 hPa | 0 mm | - | - | - |
| 1787724877 | 17.78° C | 55% | 1018.4 hPa | 0 mm | - | - | - |
| 1787724877 | 17.78° C | 55% | 1018.4 hPa | 0 mm | - | - | - |
| 1787724873 | 17.78° C | 55% | 1018.4 hPa | 0 mm | - | - | - |
| 1787724872 | 17.78° C | 55% | 1018.4 hPa | 0 mm | - | - | - |
| 1787723978 | 16.11° C | 62% | 1018.4 hPa | 0 mm | - | - | - |
| 1787723977 | 16.11° C | 62% | 1018.4 hPa | 0 mm | - | - | - |
| 1787723973 | 16.11° C | 62% | 1018.4 hPa | 0 mm | - | - | - |
| 1787723973 | 16.11° C | 62% | 1018.4 hPa | 0 mm | - | - | - |
| 1787723077 | 14.44° C | 65% | 1018.5 hPa | 0 mm | - | - | - |
* Rain latest hour (hover to see other rain measurements)
** Current wind speed in m/s (hover to see current wind gust speed)